createdAt,value
2018-10-21T00:00:22.113Z,100.00
2018-10-21T00:02:51.304Z,100.00
2018-10-21T00:05:21.099Z,100.00
2018-10-21T00:07:50.983Z,100.00
2018-10-21T00:10:20.745Z,100.00
2018-10-21T00:12:50.533Z,100.00
2018-10-21T00:15:20.703Z,100.00
2018-10-21T00:17:49.471Z,100.00
2018-10-21T00:20:18.271Z,100.00
2018-10-21T00:22:47.103Z,100.00
2018-10-21T00:25:15.874Z,100.00
2018-10-21T00:27:44.724Z,100.00
2018-10-21T00:30:13.735Z,100.00
2018-10-21T00:32:47.880Z,100.00
2018-10-21T00:35:17.483Z,100.00
2018-10-21T00:37:46.399Z,100.00
2018-10-21T00:40:15.532Z,100.00
2018-10-21T00:42:44.358Z,100.00
2018-10-21T00:45:13.949Z,100.00
2018-10-21T00:47:42.684Z,100.00
2018-10-21T00:50:12.247Z,100.00
2018-10-21T00:52:41.040Z,100.00
2018-10-21T00:55:10.664Z,100.00
2018-10-21T00:57:39.821Z,100.00
2018-10-21T01:00:10.752Z,100.00
2018-10-21T01:02:39.962Z,100.00
2018-10-21T01:05:10.016Z,100.00
2018-10-21T01:07:38.951Z,100.00
2018-10-21T01:10:10.085Z,100.00
2018-10-21T01:12:38.916Z,100.00
2018-10-21T01:15:09.564Z,100.00
2018-10-21T01:17:38.363Z,100.00
2018-10-21T01:20:08.790Z,100.00
2018-10-21T01:22:37.916Z,100.00
2018-10-21T01:25:07.357Z,100.00
2018-10-21T01:27:36.311Z,100.00
2018-10-21T01:30:05.945Z,100.00
2018-10-21T01:32:34.727Z,100.00
2018-10-21T01:35:03.699Z,100.00
2018-10-21T01:37:32.547Z,100.00
2018-10-21T01:40:41.807Z,100.00
2018-10-21T01:43:12.035Z,100.00
2018-10-21T01:45:41.088Z,100.00
2018-10-21T01:48:11.837Z,100.00
2018-10-21T01:50:41.001Z,100.00
2018-10-21T01:53:11.459Z,100.00
2018-10-21T01:55:40.449Z,100.00
2018-10-21T01:58:09.228Z,100.00
2018-10-21T02:00:38.732Z,100.00
2018-10-21T02:03:07.835Z,100.00
2018-10-21T02:05:37.262Z,100.00
2018-10-21T02:08:06.465Z,100.00
2018-10-21T02:10:35.632Z,100.00
2018-10-21T02:13:04.616Z,100.00
2018-10-21T02:15:33.546Z,100.00
2018-10-21T02:18:03.227Z,100.00
2018-10-21T02:20:32.139Z,100.00
2018-10-21T02:23:00.957Z,100.00
2018-10-21T02:25:29.794Z,100.00
2018-10-21T02:27:58.704Z,100.00
2018-10-21T02:30:29.707Z,100.00
2018-10-21T02:32:59.132Z,100.00
2018-10-21T02:35:28.225Z,100.00
2018-10-21T02:37:57.898Z,100.00
2018-10-21T02:41:51.268Z,100.00
2018-10-21T02:44:21.858Z,100.00
2018-10-21T02:46:52.776Z,100.00
2018-10-21T02:49:22.133Z,100.00
2018-10-21T02:51:56.609Z,100.00
2018-10-21T02:54:28.862Z,100.00
2018-10-21T02:56:57.774Z,100.00
2018-10-21T02:59:26.799Z,100.00
2018-10-21T03:01:55.725Z,100.00
2018-10-21T03:04:25.147Z,100.00
2018-10-21T03:06:53.918Z,100.00
2018-10-21T03:09:23.033Z,100.00
2018-10-21T03:11:51.875Z,100.00
2018-10-21T03:14:20.694Z,100.00
2018-10-21T03:16:49.831Z,100.00
2018-10-21T03:19:19.018Z,100.00
2018-10-21T03:21:47.898Z,100.00
2018-10-21T03:24:17.209Z,100.00
2018-10-21T03:26:47.484Z,100.00
2018-10-21T03:29:16.287Z,100.00
2018-10-21T03:31:45.399Z,100.00
2018-10-21T03:34:14.201Z,100.00
2018-10-21T03:36:43.162Z,100.00
2018-10-21T03:39:12.299Z,100.00
2018-10-21T03:41:41.449Z,100.00
2018-10-21T03:44:10.493Z,100.00
2018-10-21T03:46:39.351Z,100.00
2018-10-21T03:49:08.166Z,100.00
2018-10-21T03:51:36.978Z,100.00
2018-10-21T03:54:05.912Z,100.00
2018-10-21T03:56:35.056Z,100.00
2018-10-21T03:59:04.306Z,100.00
2018-10-21T04:01:33.407Z,100.00
2018-10-21T04:04:02.871Z,100.00
2018-10-21T04:06:31.967Z,100.00
2018-10-21T04:09:00.814Z,100.00
2018-10-21T04:11:29.946Z,100.00
2018-10-21T04:13:58.746Z,100.00
2018-10-21T04:16:27.640Z,100.00
2018-10-21T04:18:56.696Z,100.00
2018-10-21T04:21:25.832Z,100.00
2018-10-21T04:23:55.195Z,100.00
2018-10-21T04:26:24.040Z,100.00
2018-10-21T04:28:52.797Z,100.00
2018-10-21T04:31:21.918Z,100.00
2018-10-21T04:33:51.373Z,100.00
2018-10-21T04:36:27.318Z,100.00
2018-10-21T04:40:14.392Z,100.00
2018-10-21T04:42:43.357Z,100.00
2018-10-21T04:45:13.390Z,100.00
2018-10-21T04:47:42.889Z,100.00
2018-10-21T04:50:12.233Z,100.00
2018-10-21T04:52:41.061Z,100.00
2018-10-21T04:55:12.207Z,100.00
2018-10-21T04:57:42.275Z,100.00
2018-10-21T05:00:16.235Z,100.00
2018-10-21T05:02:44.993Z,100.00
2018-10-21T05:05:15.023Z,100.00
2018-10-21T05:07:43.867Z,100.00
2018-10-21T05:10:22.678Z,100.00
2018-10-21T05:12:52.251Z,100.00
2018-10-21T05:15:21.741Z,100.00
2018-10-21T05:17:50.863Z,100.00
2018-10-21T05:20:19.941Z,100.00
2018-10-21T05:22:49.176Z,100.00
2018-10-21T05:25:17.969Z,100.00
2018-10-21T05:27:47.166Z,100.00
2018-10-21T05:30:16.069Z,100.00
2018-10-21T05:32:45.014Z,100.00
2018-10-21T05:35:15.088Z,100.00
2018-10-21T05:37:44.218Z,100.00
2018-10-21T05:40:15.988Z,100.00
2018-10-21T05:42:45.198Z,100.00
2018-10-21T05:45:13.963Z,100.00
2018-10-21T05:47:43.097Z,100.00
2018-10-21T05:50:13.392Z,100.00
2018-10-21T05:52:42.461Z,100.00
2018-10-21T05:55:12.124Z,100.00
2018-10-21T05:57:41.057Z,100.00
2018-10-21T06:00:14.569Z,100.00
2018-10-21T06:02:43.480Z,100.00
2018-10-21T06:05:23.658Z,100.00
2018-10-21T06:07:52.813Z,100.00
2018-10-21T06:10:21.580Z,100.00
2018-10-21T06:12:50.408Z,100.00
2018-10-21T06:15:19.254Z,100.00
2018-10-21T06:17:48.380Z,100.00
2018-10-21T06:20:35.288Z,100.00
2018-10-21T06:23:04.183Z,100.00
2018-10-21T06:25:33.338Z,100.00
2018-10-21T06:28:02.232Z,100.00
2018-10-21T06:30:31.140Z,100.00
2018-10-21T06:33:00.372Z,100.00
2018-10-21T06:35:29.206Z,100.00
2018-10-21T06:37:58.332Z,100.00
2018-10-21T06:40:27.378Z,100.00
2018-10-21T06:42:56.670Z,100.00
2018-10-21T06:45:25.649Z,100.00
2018-10-21T06:47:54.726Z,100.00
2018-10-21T06:50:23.631Z,100.00
2018-10-21T06:52:52.630Z,100.00
2018-10-21T06:55:21.395Z,100.00
2018-10-21T06:57:50.381Z,100.00
2018-10-21T07:00:19.148Z,100.00
2018-10-21T07:02:47.963Z,100.00
2018-10-21T07:05:27.971Z,100.00
2018-10-21T07:07:56.848Z,100.00
2018-10-21T07:10:26.198Z,100.00
2018-10-21T07:12:55.077Z,100.00
2018-10-21T07:15:24.160Z,100.00
2018-10-21T07:17:52.961Z,100.00
2018-10-21T07:20:23.235Z,100.00
2018-10-21T07:22:52.335Z,100.00
2018-10-21T07:25:21.149Z,100.00
2018-10-21T07:27:50.234Z,100.00
2018-10-21T07:30:19.256Z,100.00
2018-10-21T07:32:48.151Z,100.00
2018-10-21T07:35:16.951Z,100.00
2018-10-21T07:37:45.771Z,100.00
2018-10-21T07:40:14.801Z,100.00
2018-10-21T07:42:43.912Z,100.00
2018-10-21T07:45:13.224Z,100.00
2018-10-21T07:47:42.518Z,100.00
2018-10-21T07:50:11.414Z,100.00
2018-10-21T07:52:40.490Z,100.00
2018-10-21T07:55:13.722Z,100.00
2018-10-21T07:57:42.591Z,100.00
2018-10-21T08:00:11.731Z,100.00
2018-10-21T08:02:40.791Z,100.00
2018-10-21T08:05:19.910Z,100.00
2018-10-21T08:07:59.852Z,100.00
2018-10-21T08:10:28.695Z,100.00
2018-10-21T08:12:57.514Z,100.00
2018-10-21T08:15:27.340Z,100.00
2018-10-21T08:17:56.209Z,100.00
2018-10-21T08:20:25.463Z,100.00
2018-10-21T08:22:54.400Z,100.00
2018-10-21T08:25:23.314Z,100.00
2018-10-21T08:27:52.328Z,100.00
2018-10-21T08:30:21.181Z,100.00
2018-10-21T08:32:50.191Z,100.00
2018-10-21T08:35:19.997Z,100.00
2018-10-21T08:37:49.092Z,100.00
2018-10-21T08:40:17.915Z,100.00
2018-10-21T08:42:46.699Z,100.00
2018-10-21T08:45:15.482Z,100.00
2018-10-21T08:47:44.341Z,100.00
2018-10-21T08:50:14.018Z,100.00
2018-10-21T08:52:43.078Z,100.00
2018-10-21T08:55:12.653Z,100.00
2018-10-21T08:57:41.801Z,100.00
2018-10-21T09:00:13.774Z,100.00
2018-10-21T09:02:43.150Z,100.00
2018-10-21T09:05:13.104Z,100.00
2018-10-21T09:07:43.257Z,100.00
2018-10-21T09:10:13.250Z,100.00
2018-10-21T09:12:42.988Z,100.00
2018-10-21T09:15:14.769Z,100.00
2018-10-21T09:17:44.237Z,100.00
2018-10-21T09:20:16.134Z,100.00
2018-10-21T09:22:44.924Z,100.00
2018-10-21T09:25:14.203Z,100.00
2018-10-21T09:27:44.020Z,100.00
2018-10-21T09:30:15.509Z,100.00
2018-10-21T09:32:44.364Z,100.00
2018-10-21T09:35:17.671Z,100.00
2018-10-21T09:37:47.012Z,100.00
2018-10-21T09:40:17.249Z,99.48
2018-10-21T09:42:46.949Z,97.08
2018-10-21T09:45:17.444Z,97.08
2018-10-21T09:47:46.861Z,97.25
2018-10-21T09:50:15.783Z,96.83
2018-10-21T09:52:44.665Z,96.01
2018-10-21T09:55:20.584Z,96.02
2018-10-21T09:57:50.211Z,95.80
2018-10-21T10:00:24.395Z,94.43
2018-10-21T10:02:58.384Z,93.82
2018-10-21T10:05:27.322Z,93.53
2018-10-21T10:07:56.547Z,92.65
2018-10-21T10:10:25.982Z,91.75
2018-10-21T10:12:55.064Z,92.17
2018-10-21T10:15:24.201Z,91.18
2018-10-21T10:17:53.366Z,91.77
2018-10-21T10:20:22.154Z,91.53
2018-10-21T10:22:51.353Z,90.95
2018-10-21T10:25:20.555Z,90.34
2018-10-21T10:27:49.642Z,89.15
2018-10-21T10:30:18.495Z,88.30
2018-10-21T10:32:47.413Z,88.38
2018-10-21T10:35:16.295Z,88.25
2018-10-21T10:37:45.171Z,86.63
2018-10-21T10:40:14.802Z,86.01
2018-10-21T10:42:45.044Z,87.05
2018-10-21T10:45:15.277Z,84.25
2018-10-21T10:47:44.414Z,84.40
2018-10-21T10:50:13.250Z,84.06
2018-10-21T10:52:42.212Z,83.63
2018-10-21T10:55:11.179Z,82.69
2018-10-21T10:57:46.231Z,82.37
2018-10-21T11:00:15.275Z,81.50
2018-10-21T11:02:44.371Z,81.69
2018-10-21T11:05:13.345Z,80.13
2018-10-21T11:07:42.461Z,79.97
2018-10-21T11:10:11.998Z,79.91
2018-10-21T11:12:40.877Z,79.14
2018-10-21T11:15:10.027Z,80.83
2018-10-21T11:17:38.971Z,78.71
2018-10-21T11:20:07.843Z,79.02
2018-10-21T11:22:36.900Z,78.73
2018-10-21T11:25:07.945Z,78.64
2018-10-21T11:27:37.108Z,78.62
2018-10-21T11:30:06.638Z,78.40
2018-10-21T11:32:35.443Z,77.39
2018-10-21T11:35:04.784Z,78.93
2018-10-21T11:37:34.037Z,78.78
2018-10-21T11:40:02.922Z,79.01
2018-10-21T11:42:32.098Z,77.53
2018-10-21T11:45:00.872Z,76.09
2018-10-21T11:47:29.620Z,76.82
2018-10-21T11:49:58.763Z,76.16
2018-10-21T11:52:27.635Z,75.45
2018-10-21T11:54:56.466Z,75.19
2018-10-21T11:57:25.292Z,75.33
2018-10-21T11:59:54.083Z,75.57
2018-10-21T12:02:22.826Z,73.96
2018-10-21T12:04:51.972Z,74.69
2018-10-21T12:07:21.286Z,74.70
2018-10-21T12:09:50.090Z,73.99
2018-10-21T12:12:19.005Z,74.43
2018-10-21T12:14:48.198Z,74.96
2018-10-21T12:17:17.321Z,74.28
2018-10-21T12:19:46.153Z,73.55
2018-10-21T12:22:15.115Z,73.89
2018-10-21T12:24:43.762Z,73.49
2018-10-21T12:27:12.554Z,73.42
2018-10-21T12:29:42.032Z,73.40
2018-10-21T12:32:11.274Z,72.68
2018-10-21T12:34:40.281Z,73.65
2018-10-21T12:37:09.389Z,73.55
2018-10-21T12:39:38.247Z,72.94
2018-10-21T12:42:07.196Z,72.89
2018-10-21T12:44:36.330Z,73.03
2018-10-21T12:47:05.783Z,72.85
2018-10-21T12:49:34.558Z,72.79
2018-10-21T12:52:03.405Z,72.21
2018-10-21T12:54:32.575Z,72.24
2018-10-21T12:57:04.382Z,72.04
2018-10-21T12:59:33.542Z,72.76
2018-10-21T13:02:02.664Z,73.75
2018-10-21T13:04:31.479Z,72.66
2018-10-21T13:07:01.224Z,73.54
2018-10-21T13:09:29.971Z,72.84
2018-10-21T13:11:59.081Z,73.55
2018-10-21T13:14:28.148Z,72.83
2018-10-21T13:16:57.260Z,73.59
2018-10-21T13:19:26.107Z,73.46
2018-10-21T13:21:55.240Z,74.15
2018-10-21T13:24:24.386Z,74.72
2018-10-21T13:26:53.135Z,72.94
2018-10-21T13:29:21.923Z,73.62
2018-10-21T13:31:51.029Z,73.63
2018-10-21T13:34:19.910Z,74.20
2018-10-21T13:36:49.191Z,74.08
2018-10-21T13:39:18.410Z,74.25
2018-10-21T13:41:47.478Z,75.13
2018-10-21T13:44:16.556Z,74.69
2018-10-21T13:46:45.678Z,74.43
2018-10-21T13:49:14.905Z,74.55
2018-10-21T13:51:44.105Z,73.87
2018-10-21T13:54:13.133Z,73.78
2018-10-21T13:56:41.905Z,73.68
2018-10-21T13:59:10.815Z,74.37
2018-10-21T14:01:39.511Z,75.52
2018-10-21T14:04:08.640Z,75.04
2018-10-21T14:06:37.737Z,75.63
2018-10-21T14:09:09.640Z,74.82
2018-10-21T14:11:38.951Z,75.05
2018-10-21T14:14:09.687Z,74.76
2018-10-21T14:16:38.495Z,74.41
2018-10-21T14:19:07.667Z,74.00
2018-10-21T14:21:36.414Z,74.61
2018-10-21T14:24:05.268Z,74.39
2018-10-21T14:26:34.250Z,74.34
2018-10-21T14:29:03.047Z,74.38
2018-10-21T14:31:32.135Z,74.71
2018-10-21T14:34:01.167Z,74.95
2018-10-21T14:36:30.263Z,74.26
2018-10-21T14:38:59.676Z,75.21
2018-10-21T14:41:28.840Z,74.77
2018-10-21T14:43:57.975Z,75.42
2018-10-21T14:46:26.871Z,75.15
2018-10-21T14:48:56.394Z,75.00
2018-10-21T14:51:25.254Z,74.68
2018-10-21T14:53:56.113Z,75.19
2018-10-21T14:56:24.897Z,74.69
2018-10-21T14:58:53.978Z,74.24
2018-10-21T15:01:22.796Z,74.04
2018-10-21T15:03:52.324Z,73.40
2018-10-21T15:06:21.518Z,73.31
2018-10-21T15:08:50.350Z,73.43
2018-10-21T15:11:19.125Z,73.87
2018-10-21T15:13:47.977Z,73.83
2018-10-21T15:16:17.418Z,74.25
2018-10-21T15:18:46.211Z,73.91
2018-10-21T15:21:15.057Z,74.83
2018-10-21T15:23:43.934Z,75.03
2018-10-21T15:26:13.232Z,74.76
2018-10-21T15:28:42.331Z,75.16
2018-10-21T15:31:11.706Z,75.28
2018-10-21T15:33:40.774Z,75.26
2018-10-21T15:36:09.533Z,74.87
2018-10-21T15:38:38.365Z,75.11
2018-10-21T15:41:07.175Z,74.61
2018-10-21T15:43:35.948Z,75.35
2018-10-21T15:46:05.138Z,75.32
2018-10-21T15:48:33.996Z,75.29
2018-10-21T15:51:03.303Z,75.98
2018-10-21T15:53:32.551Z,75.48
2018-10-21T15:56:01.484Z,75.99
2018-10-21T15:58:30.256Z,76.69
2018-10-21T16:00:59.099Z,76.46
2018-10-21T16:03:28.234Z,76.54
2018-10-21T16:05:57.595Z,77.35
2018-10-21T16:08:26.643Z,77.46
2018-10-21T16:10:55.679Z,77.44
2018-10-21T16:13:24.699Z,77.55
2018-10-21T16:15:53.575Z,77.95
2018-10-21T16:18:22.535Z,77.76
2018-10-21T16:20:51.839Z,78.29
2018-10-21T16:23:21.060Z,78.41
2018-10-21T16:25:50.506Z,78.54
2018-10-21T16:28:20.045Z,78.50
2018-10-21T16:30:48.844Z,78.98
2018-10-21T16:33:17.939Z,78.84
2018-10-21T16:35:46.734Z,79.35
2018-10-21T16:38:16.222Z,79.23
2018-10-21T16:40:45.386Z,79.08
2018-10-21T16:43:14.195Z,78.92
2018-10-21T16:45:43.273Z,79.45
2018-10-21T16:48:12.179Z,79.38
2018-10-21T16:50:41.296Z,79.47
2018-10-21T16:53:10.689Z,79.75
2018-10-21T16:55:46.006Z,79.83
2018-10-21T16:58:14.746Z,80.10
2018-10-21T17:00:43.781Z,80.23
2018-10-21T17:03:12.419Z,80.18
2018-10-21T17:05:41.735Z,79.79
2018-10-21T17:08:10.767Z,80.26
2018-10-21T17:10:40.403Z,80.41
2018-10-21T17:13:09.291Z,80.74
2018-10-21T17:15:39.387Z,80.53
2018-10-21T17:18:08.627Z,80.63
2018-10-21T17:20:37.678Z,80.81
2018-10-21T17:23:06.789Z,81.06
2018-10-21T17:25:35.892Z,81.34
2018-10-21T17:28:04.938Z,81.95
2018-10-21T17:30:33.784Z,81.34
2018-10-21T17:33:02.610Z,82.15
2018-10-21T17:35:31.558Z,82.34
2018-10-21T17:38:00.483Z,82.63
2018-10-21T17:40:29.265Z,82.56
2018-10-21T17:42:58.453Z,83.69
2018-10-21T17:45:28.344Z,83.83
2018-10-21T17:47:57.258Z,84.25
2018-10-21T17:50:25.996Z,85.01
2018-10-21T17:52:55.048Z,84.58
2018-10-21T17:55:24.687Z,84.99
2018-10-21T17:57:53.812Z,85.34
2018-10-21T18:00:23.306Z,85.51
2018-10-21T18:02:52.128Z,85.44
2018-10-21T18:05:20.917Z,85.72
2018-10-21T18:07:50.430Z,86.12
2018-10-21T18:10:19.258Z,85.70
2018-10-21T18:12:48.376Z,86.30
2018-10-21T18:15:17.286Z,86.44
2018-10-21T18:17:46.169Z,86.26
2018-10-21T18:20:15.005Z,86.97
2018-10-21T18:22:43.869Z,87.16
2018-10-21T18:25:12.909Z,87.90
2018-10-21T18:27:42.746Z,88.29
2018-10-21T18:30:12.708Z,88.23
2018-10-21T18:32:42.285Z,88.21
2018-10-21T18:35:13.630Z,88.54
2018-10-21T18:37:42.631Z,88.45
2018-10-21T18:40:12.188Z,88.31
2018-10-21T18:42:41.712Z,88.76
2018-10-21T18:45:12.564Z,88.68
2018-10-21T18:47:41.886Z,88.73
2018-10-21T18:50:12.858Z,88.89
2018-10-21T18:52:42.121Z,88.82
2018-10-21T18:55:11.898Z,88.87
2018-10-21T18:57:41.255Z,88.88
2018-10-21T19:00:13.741Z,88.94
2018-10-21T19:02:42.852Z,88.92
2018-10-21T19:05:12.597Z,89.52
2018-10-21T19:07:41.508Z,89.90
2018-10-21T19:10:12.730Z,90.04
2018-10-21T19:12:41.690Z,89.59
2018-10-21T19:15:12.347Z,89.94
2018-10-21T19:17:42.032Z,89.97
2018-10-21T19:20:13.603Z,89.83
2018-10-21T19:22:42.736Z,90.18
2018-10-21T19:25:12.780Z,90.49
2018-10-21T19:27:42.238Z,90.31
2018-10-21T19:30:12.164Z,90.68
2018-10-21T19:32:41.629Z,90.75
2018-10-21T19:35:11.658Z,91.14
2018-10-21T19:37:40.703Z,90.54
2018-10-21T19:40:11.834Z,90.78
2018-10-21T19:42:41.451Z,91.14
2018-10-21T19:45:11.406Z,91.34
2018-10-21T19:47:41.021Z,91.56
2018-10-21T19:50:12.055Z,91.66
2018-10-21T19:52:42.194Z,91.65
2018-10-21T19:55:11.773Z,91.58
2018-10-21T19:57:40.610Z,92.13
2018-10-21T20:00:11.531Z,92.05
2018-10-21T20:02:40.604Z,91.79
2018-10-21T20:05:09.716Z,92.42
2018-10-21T20:07:38.438Z,92.45
2018-10-21T20:10:09.007Z,92.55
2018-10-21T20:12:44.359Z,92.50
2018-10-21T20:15:13.816Z,92.17
2018-10-21T20:17:42.599Z,92.97
2018-10-21T20:20:12.334Z,93.04
2018-10-21T20:22:41.184Z,93.33
2018-10-21T20:25:12.322Z,93.19
2018-10-21T20:27:41.500Z,92.94
2018-10-21T20:30:11.889Z,93.40
2018-10-21T20:32:40.678Z,93.30
2018-10-21T20:35:10.460Z,93.56
2018-10-21T20:37:39.546Z,93.19
2018-10-21T20:40:09.594Z,93.38
2018-10-21T20:42:38.560Z,93.27
2018-10-21T20:45:08.876Z,93.24
2018-10-21T20:47:37.701Z,93.48
2018-10-21T20:50:06.654Z,93.48
2018-10-21T20:52:35.457Z,93.33
2018-10-21T20:55:04.478Z,93.61
2018-10-21T20:57:33.356Z,93.30
2018-10-21T21:00:02.154Z,93.66
2018-10-21T21:02:31.239Z,93.29
2018-10-21T21:05:00.220Z,93.23
2018-10-21T21:07:28.994Z,93.22
2018-10-21T21:09:57.828Z,93.30
2018-10-21T21:12:26.950Z,93.51
2018-10-21T21:14:56.008Z,93.65
2018-10-21T21:17:24.795Z,93.93
2018-10-21T21:19:55.057Z,94.18
2018-10-21T21:22:23.912Z,94.24
2018-10-21T21:24:53.042Z,94.65
2018-10-21T21:27:21.892Z,94.43
2018-10-21T21:29:50.994Z,94.31
2018-10-21T21:32:19.965Z,94.77
2018-10-21T21:34:48.761Z,95.07
2018-10-21T21:37:17.951Z,94.88
2018-10-21T21:39:46.818Z,95.46
2018-10-21T21:42:15.693Z,95.46
2018-10-21T21:44:44.842Z,95.47
2018-10-21T21:47:13.656Z,95.86
2018-10-21T21:49:42.775Z,95.74
2018-10-21T21:52:12.057Z,95.78
2018-10-21T21:54:40.830Z,95.86
2018-10-21T21:57:09.835Z,95.65
2018-10-21T21:59:39.123Z,95.43
2018-10-21T22:02:07.937Z,95.77
2018-10-21T22:04:36.935Z,95.96
2018-10-21T22:07:06.111Z,95.53
2018-10-21T22:09:34.983Z,96.03
2018-10-21T22:12:03.816Z,95.64
2018-10-21T22:14:32.803Z,96.05
2018-10-21T22:17:01.662Z,95.79
2018-10-21T22:19:30.505Z,96.06
2018-10-21T22:21:59.384Z,96.48
2018-10-21T22:24:28.221Z,96.64
2018-10-21T22:26:57.084Z,96.37
2018-10-21T22:29:26.236Z,96.58
2018-10-21T22:31:55.076Z,96.59
2018-10-21T22:34:23.970Z,96.54
2018-10-21T22:36:53.007Z,96.10
2018-10-21T22:39:22.149Z,96.28
2018-10-21T22:41:51.359Z,96.41
2018-10-21T22:44:21.107Z,96.51
2018-10-21T22:46:50.367Z,96.15
2018-10-21T22:49:19.204Z,96.16
2018-10-21T22:51:48.525Z,95.95
2018-10-21T22:54:17.407Z,95.38
2018-10-21T22:56:46.168Z,95.61
2018-10-21T22:59:14.930Z,95.69
2018-10-21T23:01:43.733Z,95.35
2018-10-21T23:04:12.866Z,95.37
2018-10-21T23:06:41.678Z,95.44
2018-10-21T23:09:11.723Z,95.14
2018-10-21T23:11:40.875Z,95.02
2018-10-21T23:14:11.020Z,95.02
2018-10-21T23:16:40.660Z,94.89
2018-10-21T23:19:20.473Z,94.78
2018-10-21T23:21:49.445Z,94.67
2018-10-21T23:24:19.433Z,94.97
2018-10-21T23:26:48.211Z,95.12
2018-10-21T23:29:17.235Z,94.65
2018-10-21T23:31:46.077Z,94.95
2018-10-21T23:34:15.631Z,94.98
2018-10-21T23:36:44.644Z,94.98
2018-10-21T23:39:13.516Z,94.73
2018-10-21T23:41:42.370Z,95.09
2018-10-21T23:44:11.229Z,94.67
2018-10-21T23:46:40.584Z,95.30
2018-10-21T23:49:09.806Z,95.21
2018-10-21T23:51:39.404Z,95.16
2018-10-21T23:54:08.516Z,94.95
2018-10-21T23:56:37.306Z,95.64
2018-10-21T23:59:07.575Z,95.28
